地図

経路データ

SID SEASON NUMBER BASIN SUBBASIN NAME ISO_TIME NATURE LAT LON WMO_WIND WMO_PRES WMO_AGENCY TRACK_TYPE DIST2LAND LANDFALL IFLAG USA_AGENCY USA_ATCF_ID USA_LAT USA_LON USA_RECORD USA_STATUS USA_WIND USA_PRES USA_SSHS USA_R34_NE USA_R34_SE USA_R34_SW USA_R34_NW USA_R50_NE USA_R50_SE USA_R50_SW USA_R50_NW USA_R64_NE USA_R64_SE USA_R64_SW USA_R64_NW USA_POCI USA_ROCI USA_RMW USA_EYE TOKYO_LAT TOKYO_LON TOKYO_GRADE TOKYO_WIND TOKYO_PRES TOKYO_R50_DIR TOKYO_R50_LONG TOKYO_R50_SHORT TOKYO_R30_DIR TOKYO_R30_LONG TOKYO_R30_SHORT TOKYO_LAND CMA_LAT CMA_LON CMA_CAT CMA_WIND CMA_PRES HKO_LAT HKO_LON HKO_CAT HKO_WIND HKO_PRES NEWDELHI_LAT NEWDELHI_LON NEWDELHI_GRADE NEWDELHI_WIND NEWDELHI_PRES NEWDELHI_CI NEWDELHI_DP NEWDELHI_POCI REUNION_LAT REUNION_LON REUNION_TYPE REUNION_WIND REUNION_PRES REUNION_TNUM REUNION_CI REUNION_RMW REUNION_R34_NE REUNION_R34_SE REUNION_R34_SW REUNION_R34_NW REUNION_R50_NE REUNION_R50_SE REUNION_R50_SW REUNION_R50_NW REUNION_R64_NE REUNION_R64_SE REUNION_R64_SW REUNION_R64_NW BOM_LAT BOM_LON BOM_TYPE BOM_WIND BOM_PRES BOM_TNUM BOM_CI BOM_RMW BOM_R34_NE BOM_R34_SE BOM_R34_SW BOM_R34_NW BOM_R50_NE BOM_R50_SE BOM_R50_SW BOM_R50_NW BOM_R64_NE BOM_R64_SE BOM_R64_SW BOM_R64_NW BOM_ROCI BOM_POCI BOM_EYE BOM_POS_METHOD BOM_PRES_METHOD NADI_LAT NADI_LON NADI_CAT NADI_WIND NADI_PRES WELLINGTON_LAT WELLINGTON_LON WELLINGTON_WIND WELLINGTON_PRES DS824_LAT DS824_LON DS824_STAGE DS824_WIND DS824_PRES TD9636_LAT TD9636_LON TD9636_STAGE TD9636_WIND TD9636_PRES TD9635_LAT TD9635_LON TD9635_WIND TD9635_PRES TD9635_ROCI NEUMANN_LAT NEUMANN_LON NEUMANN_CLASS NEUMANN_WIND NEUMANN_PRES MLC_LAT MLC_LON MLC_CLASS MLC_WIND MLC_PRES USA_GUST BOM_GUST BOM_GUST_PER REUNION_GUST REUNION_GUST_PER USA_SEAHGT USA_SEARAD_NE USA_SEARAD_SE USA_SEARAD_SW USA_SEARAD_NW STORM_SPEED STORM_DIR
1959274N09137 1959 88 WP MM AMY 1959-10-01 00:00:00 TS 9.50000 136.800 main 1140 1043 __O___________ -1 9.50000 136.800 1 29 1003 18 273
1959274N09137 1959 88 WP MM AMY 1959-10-01 03:00:00 TS 9.54046 135.900 main 1043 948 __P___________ -1 9.54046 135.900 1 29 1003 18 273
1959274N09137 1959 88 WP MM AMY 1959-10-01 06:00:00 TS 9.60000 135.000 main 948 865 __O___________ -1 9.60000 135.000 1 29 1003 18 275
1959274N09137 1959 88 WP MM AMY 1959-10-01 09:00:00 TS 9.69227 134.100 main 854 773 __P___________ -1 9.69227 134.100 1 29 1002 18 276
1959274N09137 1959 88 WP MM AMY 1959-10-01 12:00:00 TS 9.80000 133.200 main 763 670 __O___________ -1 9.80000 133.200 1 29 1002 18 277
1959274N09137 1959 88 WP MM AMY 1959-10-01 15:00:00 TS 9.89982 132.292 main 670 575 __P___________ -1 9.89982 132.292 1 29 1002 18 276
1959274N09137 1959 88 WP MM AMY 1959-10-01 18:00:00 TS 10.0000 131.400 main 575 490 __O___________ -1 10.0000 131.400 1 29 1002 17 274
1959274N09137 1959 88 WP MM AMY 1959-10-01 21:00:00 TS 10.0169 130.579 main 490 410 __P___________ -1 10.0169 130.579 1 29 1002 17 277
1959274N09137 1959 88 WP MM AMY 1959-10-02 00:00:00 TS 10.2000 129.700 main 399 307 __O___________ -1 10.2000 129.700 1 29 1002 21 291
1959274N09137 1959 88 WP MM AMY 1959-10-02 03:00:00 TS 10.7530 128.586 main 306 201 __P___________ -1 10.7530 128.586 1 29 1002 25 301
1959274N09137 1959 88 WP MM AMY 1959-10-02 06:00:00 TS 11.5000 127.500 main 193 130 __O___________ -1 11.5000 127.500 1 29 1002 24 308
1959274N09137 1959 88 WP MM AMY 1959-10-02 09:00:00 TS 12.2120 126.674 main 130 93 __P___________ -1 12.2120 126.674 1 29 1001 21 316
1959274N09137 1959 88 WP MM AMY 1959-10-02 12:00:00 TS 13.0000 126.000 main 101 101 __O___________ -1 13.0000 126.000 1 29 1001 21 323
1959274N09137 1959 88 WP MM AMY 1959-10-02 15:00:00 TS 13.9074 125.348 main 97 85 __P___________ -1 13.9074 125.348 1 29 1001 22 327
1959274N09137 1959 88 WP MM AMY 1959-10-02 18:00:00 TS 14.8000 124.800 main 104 104 __O___________ -1 14.8000 124.800 1 29 1001 19 329
1959274N09137 1959 88 WP MM AMY 1959-10-02 21:00:00 TS 15.5599 124.325 main 179 178 __P___________ -1 15.5599 124.325 1 29 1001 16 331
1959274N09137 1959 88 WP MM AMY 1959-10-03 00:00:00 TS 16.2000 124.000 main 178 138 __O___________ -1 16.2000 124.000 1 29 1001 13 339
1959274N09137 1959 88 WP MM AMY 1959-10-03 03:00:00 TS 16.7823 123.825 main 138 138 __P___________ -1 16.7823 123.825 1 33 1000 10 350
1959274N09137 1959 88 WP MM AMY 1959-10-03 06:00:00 TS 17.1750 123.825 998 tokyo main 139 139 OOO______O_O__ jtwc_wp WP161959 17.2000 123.800 30 -1 17.0000 124.000 2 998 0 0 0 17.2000 123.800 2 38 999 17.2000 123.800 TC 30 17.2000 123.800 30 1001 240 6 12
1959274N09137 1959 88 WP MM AMY 1959-10-03 09:00:00 TS 17.3233 123.940 main 152 152 PPP______P_P__ WP161959 17.2525 123.962 30 -1 17.3475 124.045 2 998 0 0 17.4175 123.855 2 38 998 17.2525 123.962 TC 30 17.2525 123.962 30 1000 330 3 47
1959274N09137 1959 88 WP MM AMY 1959-10-03 12:00:00 TS 17.4000 124.076 998 tokyo main 175 175 OOO______OOO__ jtwc_wp WP161959 17.3000 124.100 30 -1 17.6000 124.100 9 998 0 0 0 17.5000 124.000 2 38 998 17.3000 124.100 TC 30 17.3000 124.100 1 30 17.3000 124.100 30 999 420 3 63
1959274N09137 1959 88 WP MM AMY 1959-10-03 15:00:00 TS 17.4481 124.195 main 186 186 PPP______PPP__ WP161959 17.3425 124.200 30 -1 17.6950 124.178 9 998 0 0 17.5650 124.193 2 38 998 17.3425 124.200 TC 30 17.3547 124.206 1 30 17.3425 124.200 30 998 420 2 69
1959274N09137 1959 88 WP MM AMY 1959-10-03 18:00:00 TS 17.4892 124.320 998 tokyo main 199 199 OOO______OPO__ jtwc_wp WP161959 17.4000 124.300 30 -1 17.7000 124.300 9 998 0 0 0 17.6000 124.400 2 38 998 17.4000 124.300 TC 30 17.4175 124.320 1 30 17.4000 124.300 30 997 420 3 68
1959274N09137 1959 88 WP MM AMY 1959-10-03 21:00:00 TS 17.5565 124.471 main 222 222 PPP______PPP__ WP161959 17.4925 124.442 30 -1 17.7075 124.493 9 998 0 0 17.6575 124.558 2 38 998 17.4925 124.442 TC 30 17.4965 124.449 1 30 17.4925 124.442 30 996 270 3 64
1959274N09137 1959 88 WP MM AMY 1959-10-04 00:00:00 TS 17.6333 124.633 998 tokyo main 232 232 OOO______OOO__ jtwc_wp WP161959 17.6000 124.600 30 -1 17.7000 124.700 9 998 0 0 0 17.7000 124.700 2 38 998 17.6000 124.600 TC 30 17.6000 124.600 1 30 17.6000 124.600 30 995 120 3 67
1959274N09137 1959 88 WP MM AMY 1959-10-04 03:00:00 TS 17.6771 124.776 main 256 256 PPP______PPP__ WP161959 17.6699 124.735 32 -1 17.6624 124.828 9 998 0 0 17.6550 124.843 2 38 998 17.6699 124.735 TC 32 17.7357 124.779 1 32 17.6699 124.735 32 994 120 3 63
1959274N09137 1959 88 WP MM AMY 1959-10-04 06:00:00 TS 17.7850 124.946 998 tokyo main 269 269 OOO______OPO__ jtwc_wp WP161959 17.8000 124.900 35 0 17.7000 125.000 9 998 0 0 0 17.7000 125.000 2 38 998 17.8000 124.900 TC 35 17.9101 124.978 1 35 17.8000 124.900 35 993 120 5 48
1959274N09137 1959 88 WP MM AMY 1959-10-04 09:00:00 TS 18.0329 125.194 main 306 306 PPP______PPP__ WP161959 18.0625 125.142 37 0 17.8827 125.357 9 996 0 0 17.9975 125.192 2 43 997 18.0625 125.142 TC 37 18.1294 125.188 1 37 18.0625 125.142 37 992 150 8 40
1959274N09137 1959 88 WP MM AMY 1959-10-04 12:00:00 TS 18.3667 125.450 995 tokyo main 337 337 OOO______OOO__ jtwc_wp WP161959 18.4000 125.400 40 0 18.2000 125.700 9 995 0 0 0 18.4000 125.400 3 48 997 18.4000 125.400 TC 40 18.4000 125.400 2 40 18.4000 125.400 40 991 180 8 33
1959274N09137 1959 88 WP MM AMY 1959-10-04 15:00:00 TS 18.7099 125.649 main 349 349 PPP______PPP__ WP161959 18.7350 125.608 45 0 18.6199 125.845 9 992 0 0 18.7425 125.615 3 53 996 18.7350 125.608 TC 45 18.6922 125.608 2 45 18.7350 125.608 45 989 180 8 26
1959274N09137 1959 88 WP MM AMY 1959-10-04 18:00:00 TS 19.0896 125.819 990 tokyo main 376 376 OOO______OPO__ jtwc_wp WP161959 19.1000 125.800 50 0 19.1000 125.900 9 990 0 0 0 19.1000 125.800 3 58 995 19.1000 125.800 TC 50 19.0376 125.815 2 51 19.1000 125.800 50 988 180 8 22
1959274N09137 1959 88 WP MM AMY 1959-10-04 21:00:00 TS 19.4807 125.981 main 408 408 PPP______PPP__ WP161959 19.4775 126.008 55 0 19.5500 125.958 9 990 0 0 19.4624 125.893 3 63 992 19.4775 126.008 TC 55 19.4391 126.015 2 56 19.4775 126.008 56 987 180 9 20
1959274N09137 1959 88 WP MM AMY 1959-10-05 00:00:00 TS 19.9167 126.133 990 tokyo main 432 432 OOO______OOO__ jtwc_wp WP161959 19.9000 126.200 60 0 20.0000 126.000 9 990 0 0 0 19.9000 126.000 4 68 989 19.9000 126.200 TC 60 19.9000 126.200 2 62 19.9000 126.200 62 987 180 10 17
1959274N09137 1959 88 WP MM AMY 1959-10-05 03:00:00 TS 20.3890 126.279 main 475 475 PPP______PPP__ WP161959 20.3625 126.358 62 0 20.4124 126.006 9 990 0 0 20.4776 126.250 4 68 988 20.3625 126.358 TC 62 20.3566 126.346 2 62 20.3625 126.358 63 988 180 11 15
1959274N09137 1959 88 WP MM AMY 1959-10-05 06:00:00 TS 20.9296 126.430 990 tokyo main 512 512 OOO______OPO__ jtwc_wp WP161959 20.9000 126.500 65 1 20.9000 126.100 9 990 0 0 0 21.1000 126.500 4 68 988 20.9000 126.500 TC 65 20.8775 126.480 2 63 20.9000 126.500 65 990 180 12 15
1959274N09137 1959 88 WP MM AMY 1959-10-05 09:00:00 TS 21.5342 126.610 main 563 557 PPP______PPP__ WP161959 21.5050 126.658 65 1 21.5778 126.441 9 990 0 0 21.6274 126.623 4 68 987 21.5050 126.658 TC 65 21.4847 126.624 2 64 21.5050 126.658 65 992 180 13 14
1959274N09137 1959 88 WP MM AMY 1959-10-05 12:00:00 TS 22.2167 126.783 990 tokyo main 562 533 OOO______OOO__ jtwc_wp WP161959 22.2000 126.800 65 1 22.3000 126.800 9 990 0 0 0 22.2000 126.700 4 68 987 22.2000 126.800 TC 65 22.2000 126.800 3 65 22.2000 126.800 65 994 180 14 10
1959274N09137 1959 88 WP MM AMY 1959-10-05 15:00:00 TS 22.9194 126.862 main 539 519 PPP______PPP__ WP161959 22.9323 126.857 65 1 22.8396 126.872 9 990 0 0 22.8748 126.742 4 68 986 22.9323 126.857 TC 65 23.0053 126.986 3 65 22.9323 126.857 65 996 180 16 8
1959274N09137 1959 88 WP MM AMY 1959-10-05 18:00:00 TS 23.7532 127.019 990 tokyo main 523 523 OOO______OPO__ jtwc_wp WP161959 23.8000 127.000 65 1 23.5000 127.000 9 990 0 0 0 23.7000 126.900 4 68 986 23.8000 127.000 TC 65 23.9194 127.214 3 65 23.8000 127.000 65 998 180 19 15
1959274N09137 1959 88 WP MM AMY 1959-10-05 21:00:00 TS 24.7655 127.416 main 544 544 PPP______PPP__ WP161959 24.8251 127.375 65 1 24.4958 127.511 9 990 0 0 24.6979 127.347 4 72 985 24.8251 127.375 TC 65 24.9237 127.510 3 65 24.8251 127.375 65 997 210 23 21
1959274N09137 1959 88 WP MM AMY 1959-10-06 00:00:00 TS 25.9167 127.933 990 tokyo main 600 489 OOO______OOO__ jtwc_wp WP161959 26.0000 127.900 65 1 25.7000 128.100 9 990 0 0 0 25.8000 127.900 4 77 984 26.0000 127.900 TC 65 26.0000 127.900 4 65 26.0000 127.900 65 997 240 26 21
1959274N09137 1959 88 WP MM AMY 1959-10-06 03:00:00 TS 27.1696 128.424 main 479 336 PPP______PPP__ WP161959 27.3074 128.470 62 0 27.0291 128.430 9 987 0 0 26.8919 128.322 4 82 980 27.3074 128.470 TC 62 27.1746 128.382 4 63 27.3074 128.470 63 990 240 27 20
1959274N09137 1959 88 WP MM AMY 1959-10-06 06:00:00 TS 28.4169 128.978 985 tokyo main 333 197 OOO______OPO__ jtwc_wp WP161959 28.6000 129.100 60 0 28.3000 128.800 9 985 0 0 0 28.0000 128.800 5 87 977 28.6000 129.100 TC 60 28.4013 128.967 4 62 28.6000 129.100 62 984 240 26 24
1959274N09137 1959 88 WP MM AMY 1959-10-06 09:00:00 TS 29.5149 129.606 main 197 67 PPP______PPP__ WP161959 29.7168 129.722 60 0 29.2294 129.405 9 987 0 0 29.1068 129.419 5 77 981 29.7168 129.722 TC 60 29.6024 129.645 4 61 29.7168 129.722 61 980 240 24 29
1959274N09137 1959 88 WP MM AMY 1959-10-06 12:00:00 TS 30.5167 130.333 990 tokyo main 67 0 OOO______OOO__ jtwc_wp WP161959 30.7000 130.400 60 0 30.1000 130.200 9 990 0 0 0 30.2000 130.200 4 68 985 30.7000 130.400 TC 60 30.7000 130.400 2 60 30.7000 130.400 60 977 240 24 34
1959274N09137 1959 88 WP MM AMY 1959-10-06 15:00:00 TS 31.4960 131.168 main 0 0 PPP______PPP__ WP161959 31.6019 131.156 60 0 31.2300 131.146 9 990 0 0 31.3031 131.176 4 63 987 31.6019 131.156 TC 60 31.6372 131.215 2 60 31.6019 131.156 60 977 240 24 39
1959274N09137 1959 88 WP MM AMY 1959-10-06 18:00:00 TS 32.3701 132.080 990 tokyo main 37 0 OOO______OPO__ jtwc_wp WP161959 32.4000 132.000 60 0 32.3000 132.200 9 990 0 0 0 32.3000 132.200 3 58 990 32.4000 132.000 TC 60 32.4373 132.078 2 61 32.4000 132.000 60 977 240 22 43
1959274N09137 1959 88 WP MM AMY 1959-10-06 21:00:00 TS 33.1447 132.974 main 0 0 PPP______PPP__ WP161959 33.1811 132.883 60 0 33.0661 133.224 9 993 0 0 33.1143 132.995 3 48 993 33.1811 132.883 TC 60 33.1439 132.977 2 61 33.1811 132.883 61 978 270 21 49
1959274N09137 1959 88 WP MM AMY 1959-10-07 00:00:00 MX 33.7789 133.984 996 tokyo main 0 0 OOO______OOO__ jtwc_wp WP161959 33.8000 133.900 60 0 33.7000 134.300 9 996 0 0 0 33.8000 133.900 9 38 996 33.8000 133.900 TC 60 33.8000 133.900 2 62 33.8000 133.900 62 980 300 20 57
1959274N09137 1959 88 WP MM AMY 1959-10-07 03:00:00 MX 34.2451 135.027 main 14 0 PPP______P_P__ WP161959 34.1498 134.879 52 0 34.3825 135.213 9 998 0 0 34.4207 135.176 9 33 998 34.1498 134.879 TC 52 2 34.1759 135.097 53 985 300 22 68
1959274N09137 1959 88 WP MM AMY 1959-10-07 06:00:00 MX 34.6143 136.507 1000 tokyo main 0 0 OOO______O_O__ jtwc_wp WP161959 34.4000 136.400 45 0 35.0000 136.700 9 1000 0 0 0 35.0000 136.700 9 29 1000 34.4000 136.400 TC 45 2 34.4000 136.400 45 991 300 36 79
1959274N09137 1959 88 WP MM AMY 1959-10-07 09:00:00 TS 34.9205 139.284 main 18 0 PP_______P____ WP161959 34.6842 139.089 42 0 35.3933 139.673 9 1001 0 0 9 34.6842 139.089 TC 42 2 47 82
1959274N09137 1959 88 WP MM AMY 1959-10-07 12:00:00 MX 35.2667 142.233 1002 tokyo main 125 125 OO_______O____ jtwc_wp WP161959 35.0000 142.000 40 0 35.8000 142.700 6 1002 0 0 0 35.0000 142.000 TC 40 41 77
1959274N09137 1959 88 WP MM AMY 1959-10-07 15:00:00 MX 35.8663 144.230 main 297 297 PP_______P____ WP161959 35.4632 144.194 40 0 36.6724 144.301 6 1000 0 0 35.4632 144.194 TC 40 32 67
1959274N09137 1959 88 WP MM AMY 1959-10-07 18:00:00 MX 36.5000 145.833 998 tokyo main 428 428 OO_______O____ jtwc_wp WP161959 36.0000 146.000 40 0 37.5000 145.500 6 998 0 0 0 36.0000 146.000 TC 40 28 68
1959274N09137 1959 88 WP MM AMY 1959-10-07 21:00:00 MX 36.8871 147.424 main 541 541 PP_______P____ WP161959 36.4935 147.541 42 0 37.6742 147.191 6 997 0 0 36.4935 147.541 TC 42 26 73
1959274N09137 1959 88 WP MM AMY 1959-10-08 00:00:00 MX 37.2667 148.933 996 tokyo main 639 639 OO_______O____ jtwc_wp WP161959 37.0000 149.000 45 0 37.8000 148.800 6 996 0 0 0 37.0000 149.000 TC 45 26 70
1959274N09137 1959 88 WP MM AMY 1959-10-08 03:00:00 MX 37.7604 150.468 main 733 733 PP_______P____ WP161959 37.4242 150.720 47 0 38.4328 149.963 6 992 0 0 37.4242 150.720 TC 47 27 65
1959274N09137 1959 88 WP MM AMY 1959-10-08 06:00:00 MX 38.4000 152.067 988 tokyo main 768 766 OO_______O____ jtwc_wp WP161959 38.0000 152.500 50 0 39.2000 151.200 6 988 0 0 0 38.0000 152.500 TC 50 30 59
1959274N09137 1959 88 WP MM AMY 1959-10-08 09:00:00 MX 39.3089 153.733 main 772 758 PP_______P____ WP161959 39.0441 154.130 50 0 39.8385 152.940 6 988 0 0 39.0441 154.130 TC 50 33 59
1959274N09137 1959 88 WP MM AMY 1959-10-08 12:00:00 MX 40.1000 155.667 988 tokyo main 781 781 OO_______O____ jtwc_wp WP161959 40.0000 156.000 50 0 40.3000 155.000 6 988 0 0 0 40.0000 156.000 TC 50 35 72
1959274N09137 1959 88 WP MM AMY 1959-10-08 15:00:00 MX 40.3607 158.039 main 879 879 PP_______P____ WP161959 40.2829 158.473 45 0 40.5164 157.169 6 988 0 0 40.2829 158.473 TC 45 36 86
1959274N09137 1959 88 WP MM AMY 1959-10-08 18:00:00 MX 40.3800 160.400 988 tokyo main 1024 1024 OO_______O____ jtwc_wp WP161959 40.3000 161.000 40 0 40.5000 159.500 6 988 0 0 0 40.3000 161.000 TC 40 35 90
1959274N09137 1959 88 WP MM AMY 1959-10-08 21:00:00 MX 40.3390 162.615 main 1175 1175 PP_______P____ WP161959 40.4073 163.129 37 0 40.2708 162.100 6 987 0 0 40.4073 163.129 TC 37 32 93
1959274N09137 1959 88 WP MM AMY 1959-10-09 00:00:00 MX 40.2000 164.600 986 tokyo main 1300 1300 OO_______O____ jtwc_wp WP161959 40.6000 165.000 35 0 40.0000 164.400 6 986 0 0 0 40.6000 165.000 TC 35 25 101
1959274N09137 1959 88 WP MM AMY 1959-10-09 03:00:00 ET 39.8776 165.843 main 1379 1379 _P____________ WP161959 -1 39.8776 165.843 6 986 0 0 TC 18 96
1959274N09137 1959 88 WP MM AMY 1959-10-09 06:00:00 ET 40.0000 167.000 986 tokyo main 1424 1424 _O____________ -1 40.0000 167.000 6 986 0 0 0 20 75
1959274N09137 1959 88 WP MM AMY 1959-10-09 09:00:00 ET 40.4218 168.409 main 1456 1453 _P____________ -1 40.4218 168.409 6 987 0 0 25 66
1959274N09137 1959 88 WP MM AMY 1959-10-09 12:00:00 ET 41.0000 170.000 988 tokyo main 1491 1491 _O____________ -1 41.0000 170.000 6 988 0 0 0 29 67
1959274N09137 1959 88 WP MM AMY 1959-10-09 15:00:00 ET 41.5421 171.956 main 1547 1544 _P____________ -1 41.5421 171.956 6 988 0 0 30 71
1959274N09137 1959 88 WP MM AMY 1959-10-09 18:00:00 ET 42.0000 173.800 988 tokyo main 1596 1596 _O____________ -1 42.0000 173.800 6 988 0 0 0 23 74
1959274N09137 1959 88 WP MM AMY 1959-10-09 21:00:00 ET 42.2052 174.971 main 1636 1611 _P____________ -1 42.2052 174.971 6 985 0 0 17 73
1959274N09137 1959 88 WP MM AMY 1959-10-10 00:00:00 ET 42.5000 176.000 982 tokyo main 1606 1474 _O____________ -1 42.5000 176.000 6 982 0 0 0 21 62
1959274N09137 1959 88 WP MM AMY 1959-10-10 03:00:00 ET 43.2154 177.507 main 1469 1330 _P____________ -1 43.2154 177.507 6 981 0 0 26 56
1959274N09137 1959 88 WP MM AMY 1959-10-10 06:00:00 ET 44.0000 179.000 980 tokyo main 1325 1228 _O____________ -1 44.0000 179.000 6 980 0 0 0 23 54
1959274N09137 1959 88 EP CP AMY 1959-10-10 09:00:00 ET 44.5733 180.124 main 1219 1141 _P____________ -1 44.5733 -179.876 6 978 0 0 17 55
1959274N09137 1959 88 EP CP AMY 1959-10-10 12:00:00 ET 45.0000 181.000 main 1141 _O____________ -1 45.0000 181.000 6 976 0 0 0 15 55

デジタル台風データ・検索

IBTrACS Databaseについて

本データベースは、米国NOAAが公開する1842年以降の世界の熱帯低気圧のベストトラックデータアーカイブInternational Best Track Archive for Climate Stewardship (IBTrACS)を、ウェブで閲覧しやすい形式に変換したものです。

最終更新日:2021-11-26